Time;durP1;ratioP1;P1;durP2;ratioP2;P2;SDS_P1;SDS_P2;PMS_P1;PMS_P2;Temp;Humidity;BMP_temperature;BMP_pressure;BME280_temperature;BME280_humidity;BME280_pressure;Samples;Min_cycle;Max_cycle;Signal;HPM_P1;HPM_P2
2022/01/21 00:01:14;;;;;;;2.60;1.23;;;17.20;53.00;;;;;;5052825;28;20209;-60
2022/01/21 00:03:40;;;;;;;1.50;1.15;;;17.20;52.90;;;;;;5053304;28;20183;-60
2022/01/21 00:06:06;;;;;;;2.22;1.23;;;17.20;53.00;;;;;;5053478;28;20258;-60
2022/01/21 00:08:33;;;;;;;1.58;1.25;;;17.20;53.10;;;;;;5052326;28;20175;-60
2022/01/21 00:10:59;;;;;;;3.47;1.70;;;17.20;53.10;;;;;;5053348;28;20286;-60
2022/01/21 00:13:33;;;;;;;2.75;1.13;;;17.20;53.10;;;;;;5053069;28;20602;-63
2022/01/21 00:16:02;;;;;;;2.38;1.08;;;17.20;53.10;;;;;;5053066;28;20174;-61
2022/01/21 00:18:28;;;;;;;2.08;1.10;;;17.10;53.10;;;;;;5053020;28;20218;-61
2022/01/21 00:31:50;;;;;;;1.45;1.00;;;17.10;53.10;;;;;;5052851;28;20190;-60
2022/01/21 00:34:15;;;;;;;2.70;1.35;;;17.10;53.10;;;;;;5052878;28;20543;-60
2022/01/21 00:36:40;;;;;;;1.63;1.02;;;17.00;53.10;;;;;;5052210;28;20174;-61
2022/01/21 00:39:06;;;;;;;2.88;1.17;;;17.00;53.10;;;;;;5052843;28;20260;-60
2022/01/21 00:41:36;;;;;;;2.80;1.33;;;17.00;53.10;;;;;;5052469;28;20175;-60
2022/01/21 00:44:02;;;;;;;2.33;1.15;;;17.00;53.10;;;;;;5051516;28;20237;-60
2022/01/21 00:46:27;;;;;;;2.47;1.08;;;17.00;53.10;;;;;;5052223;28;20175;-61
2022/01/21 00:48:53;;;;;;;1.70;1.10;;;17.00;53.10;;;;;;5052492;28;20183;-60
2022/01/21 00:51:18;;;;;;;1.77;1.20;;;17.00;53.10;;;;;;5051392;28;20685;-60
2022/01/21 00:53:44;;;;;;;2.85;1.08;;;16.90;53.20;;;;;;5052633;28;20586;-60
2022/01/21 00:56:09;;;;;;;1.30;0.95;;;16.90;53.20;;;;;;5052552;28;20173;-61
2022/01/21 00:58:35;;;;;;;2.70;0.90;;;16.90;53.20;;;;;;5051240;28;20564;-62
2022/01/21 01:01:00;;;;;;;1.88;1.15;;;16.90;53.20;;;;;;5052258;28;20171;-60
2022/01/21 01:03:26;;;;;;;2.97;1.10;;;16.90;53.20;;;;;;5052231;28;20204;-59
2022/01/21 01:05:51;;;;;;;2.33;1.23;;;16.90;53.20;;;;;;5051707;28;20166;-60
2022/01/21 01:08:18;;;;;;;2.08;1.20;;;16.90;53.20;;;;;;5052388;28;20262;-60
2022/01/21 01:21:47;;;;;;;2.42;1.10;;;16.80;53.10;;;;;;5051706;28;20714;-61
2022/01/21 01:29:41;;;;;;;2.15;1.10;;;16.80;53.20;;;;;;5051605;28;20190;-60
2022/01/21 01:32:07;;;;;;;3.20;1.13;;;16.80;53.20;;;;;;5051679;28;20179;-61
2022/01/21 01:34:32;;;;;;;2.00;1.30;;;16.80;53.20;;;;;;5051151;28;20186;-60
2022/01/21 01:37:02;;;;;;;1.70;1.20;;;16.70;53.20;;;;;;5051808;28;20171;-61
2022/01/21 01:39:39;;;;;;;2.28;1.20;;;16.70;53.10;;;;;;5050952;28;20189;-60
2022/01/21 01:50:03;;;;;;;2.42;1.15;;;16.70;53.10;;;;;;5051679;28;20600;-60
2022/01/21 01:52:29;;;;;;;2.55;1.20;;;16.70;53.20;;;;;;5051435;28;20175;-61
2022/01/21 01:54:55;;;;;;;2.22;1.15;;;16.60;53.10;;;;;;5050200;28;20722;-61
2022/01/21 01:57:21;;;;;;;2.33;1.20;;;16.60;53.10;;;;;;5055303;28;20653;-61
2022/01/21 01:59:46;;;;;;;2.00;0.95;;;16.60;53.10;;;;;;5055830;28;20320;-60
2022/01/21 02:02:14;;;;;;;3.55;0.95;;;16.60;53.10;;;;;;5055291;28;20603;-60
2022/01/21 02:04:40;;;;;;;2.15;1.58;;;16.60;53.10;;;;;;5055258;28;20183;-60
2022/01/21 02:07:05;;;;;;;2.15;1.13;;;16.60;53.20;;;;;;5055640;28;20175;-60
2022/01/21 02:09:31;;;;;;;3.33;1.23;;;16.60;53.20;;;;;;5054557;28;20216;-60
2022/01/21 02:11:57;;;;;;;2.75;1.20;;;16.60;53.20;;;;;;5055428;28;20262;-61
2022/01/21 02:14:28;;;;;;;2.08;1.25;;;16.60;53.20;;;;;;5054662;28;20179;-62
2022/01/21 02:22:10;;;;;;;1.65;1.02;;;16.50;53.20;;;;;;5054606;28;20214;-60
2022/01/21 02:24:55;;;;;;;3.40;1.35;;;16.50;53.20;;;;;;5055196;28;20213;-61
2022/01/21 02:27:21;;;;;;;2.10;1.00;;;16.60;53.20;;;;;;5054861;28;20199;-61
2022/01/21 02:29:53;;;;;;;2.13;1.00;;;16.50;53.20;;;;;;5054388;28;20263;-60
2022/01/21 02:32:19;;;;;;;2.08;1.13;;;16.50;53.20;;;;;;5055083;28;20179;-60
2022/01/21 02:34:45;;;;;;;2.05;1.00;;;16.50;53.20;;;;;;5054767;28;20171;-60
2022/01/21 02:37:19;;;;;;;2.00;0.90;;;16.50;53.20;;;;;;5054344;28;20186;-60
2022/01/21 02:39:44;;;;;;;2.65;1.20;;;16.50;53.20;;;;;;5054903;28;20350;-60
2022/01/21 02:42:10;;;;;;;3.80;1.30;;;16.50;53.20;;;;;;5055194;28;20206;-60
2022/01/21 02:44:36;;;;;;;2.38;1.13;;;16.50;53.20;;;;;;5053785;28;20182;-61
2022/01/21 02:47:04;;;;;;;2.47;1.25;;;16.50;53.20;;;;;;5054616;28;20229;-60
2022/01/21 02:49:29;;;;;;;2.53;1.00;;;16.50;53.20;;;;;;5054118;28;20582;-61
2022/01/21 02:51:57;;;;;;;1.88;1.10;;;16.50;53.20;;;;;;5052804;28;20229;-61
2022/01/21 02:54:22;;;;;;;2.25;1.25;;;16.40;53.10;;;;;;5052852;28;20626;-61
2022/01/21 02:56:48;;;;;;;3.40;1.20;;;16.40;53.20;;;;;;5052530;28;20210;-61
2022/01/21 02:59:13;;;;;;;1.48;1.00;;;16.40;53.20;;;;;;5053288;28;20211;-61
2022/01/21 03:01:40;;;;;;;2.55;1.20;;;16.40;53.20;;;;;;5053005;28;20270;-61
2022/01/21 03:04:07;;;;;;;2.97;1.15;;;16.40;53.10;;;;;;5052754;28;20175;-60
2022/01/21 03:06:33;;;;;;;3.67;1.05;;;16.40;53.10;;;;;;5052924;28;20201;-60
2022/01/21 03:08:59;;;;;;;2.05;1.33;;;16.40;53.20;;;;;;5053229;28;20190;-60
2022/01/21 03:11:25;;;;;;;3.70;1.30;;;16.40;53.20;;;;;;5052311;28;20175;-61
2022/01/21 03:13:51;;;;;;;2.92;1.40;;;16.40;53.80;;;;;;5053237;28;20590;-62
2022/01/21 03:16:17;;;;;;;1.63;1.00;;;16.40;53.20;;;;;;5053018;28;20206;-61
2022/01/21 03:18:42;;;;;;;1.30;1.08;;;16.30;53.20;;;;;;5052166;28;20206;-61
2022/01/21 03:21:10;;;;;;;3.42;1.38;;;16.30;53.20;;;;;;5052975;28;20186;-60
2022/01/21 03:23:36;;;;;;;1.70;1.20;;;16.30;53.20;;;;;;5052831;28;20190;-60
2022/01/21 03:26:02;;;;;;;3.13;1.33;;;16.30;53.10;;;;;;5052562;28;20548;-60
2022/01/21 03:28:27;;;;;;;1.13;0.98;;;16.30;53.20;;;;;;5052771;28;20278;-60
2022/01/21 03:30:56;;;;;;;2.50;1.02;;;16.30;53.20;;;;;;5052871;28;20171;-61
2022/01/21 03:33:23;;;;;;;2.45;1.30;;;16.30;53.20;;;;;;5052274;28;20179;-61
2022/01/21 03:35:48;;;;;;;2.58;1.20;;;16.30;53.20;;;;;;5052963;28;20180;-60
2022/01/21 03:38:14;;;;;;;2.03;1.20;;;16.20;53.20;;;;;;5053001;28;20221;-60
2022/01/21 03:40:40;;;;;;;2.45;0.93;;;16.20;53.20;;;;;;5052144;28;20175;-60
2022/01/21 03:43:05;;;;;;;3.38;1.40;;;16.30;53.30;;;;;;5052722;28;20175;-60
2022/01/21 03:45:31;;;;;;;1.48;1.00;;;16.20;53.20;;;;;;5052100;28;20241;-61
2022/01/21 03:47:56;;;;;;;2.83;1.20;;;16.30;53.30;;;;;;5052305;28;20213;-60
2022/01/21 03:50:29;;;;;;;1.75;1.10;;;16.20;53.20;;;;;;5017694;28;998769;-60
2022/01/21 03:52:55;;;;;;;2.00;1.17;;;16.20;53.20;;;;;;5053094;28;20587;-61
2022/01/21 03:55:20;;;;;;;2.95;1.00;;;16.20;53.20;;;;;;5053446;28;20182;-61
2022/01/21 03:57:46;;;;;;;2.20;1.05;;;16.20;53.20;;;;;;5053628;28;20203;-61
2022/01/21 04:00:16;;;;;;;2.05;1.20;;;16.20;53.20;;;;;;5052961;28;20202;-61
2022/01/21 04:02:42;;;;;;;2.70;1.10;;;16.20;53.20;;;;;;5053523;28;20183;-61
2022/01/21 04:05:08;;;;;;;1.27;1.08;;;16.20;53.20;;;;;;5053618;28;20179;-60
2022/01/21 04:07:34;;;;;;;1.25;0.85;;;16.20;53.20;;;;;;5052477;28;20313;-60
2022/01/21 04:09:59;;;;;;;3.03;1.65;;;16.20;53.20;;;;;;5053227;28;20350;-61
2022/01/21 04:12:25;;;;;;;3.22;1.10;;;16.10;53.20;;;;;;5052981;28;20179;-61
2022/01/21 04:14:53;;;;;;;2.30;1.20;;;16.10;53.20;;;;;;5052579;28;20673;-61
2022/01/21 04:17:18;;;;;;;1.67;1.15;;;16.10;53.20;;;;;;5052616;28;20312;-61
2022/01/21 04:19:44;;;;;;;1.55;1.02;;;16.10;53.20;;;;;;5052852;28;20340;-61
2022/01/21 04:22:09;;;;;;;2.47;1.30;;;16.10;53.20;;;;;;5052841;28;20196;-61
2022/01/21 04:24:37;;;;;;;2.35;1.00;;;16.10;53.20;;;;;;5052788;28;20179;-61
2022/01/21 04:27:02;;;;;;;1.83;0.90;;;16.10;53.20;;;;;;5053168;28;20175;-60
2022/01/21 04:29:28;;;;;;;2.65;1.20;;;16.10;53.20;;;;;;5052269;28;20187;-60
2022/01/21 04:31:53;;;;;;;2.40;0.90;;;16.00;53.10;;;;;;5052665;28;20190;-60
2022/01/21 04:34:19;;;;;;;2.00;1.10;;;16.10;53.20;;;;;;5052924;28;20176;-60
2022/01/21 04:36:44;;;;;;;1.98;0.88;;;16.00;53.20;;;;;;5052287;28;20175;-61
2022/01/21 04:39:17;;;;;;;2.25;1.30;;;16.00;53.20;;;;;;5052827;28;20206;-60
2022/01/21 04:47:16;;;;;;;2.10;1.38;;;16.00;53.20;;;;;;5052252;28;20526;-60
2022/01/21 04:49:43;;;;;;;2.78;1.08;;;16.00;53.30;;;;;;5051278;28;20258;-60
2022/01/21 04:52:08;;;;;;;2.63;1.20;;;16.00;53.20;;;;;;5052216;28;20199;-60
2022/01/21 04:54:35;;;;;;;2.40;1.10;;;16.00;53.30;;;;;;5052067;28;20626;-61
2022/01/21 04:57:01;;;;;;;1.77;1.00;;;15.90;53.20;;;;;;5051673;28;20175;-61
2022/01/21 04:59:26;;;;;;;1.92;1.10;;;15.90;53.30;;;;;;5051743;28;20652;-61
2022/01/21 05:01:52;;;;;;;2.55;1.27;;;15.90;53.20;;;;;;5052206;28;20186;-60
2022/01/21 05:04:21;;;;;;;2.17;1.20;;;15.90;53.20;;;;;;5051340;28;20167;-61
2022/01/21 05:06:48;;;;;;;1.92;1.05;;;15.90;53.20;;;;;;5051907;28;20184;-61
2022/01/21 05:09:16;;;;;;;1.23;0.80;;;15.90;53.20;;;;;;5052198;28;20254;-60
2022/01/21 05:11:42;;;;;;;3.72;1.13;;;15.90;53.20;;;;;;5050938;28;20179;-61
2022/01/21 05:14:21;;;;;;;1.60;1.15;;;15.90;53.20;;;;;;5051954;28;20257;-62
2022/01/21 05:16:49;;;;;;;1.80;1.10;;;15.90;53.20;;;;;;5051903;28;20250;-62
2022/01/21 05:19:16;;;;;;;1.83;1.00;;;15.90;53.30;;;;;;5050168;28;20697;-61
2022/01/21 05:21:43;;;;;;;1.25;0.90;;;15.90;53.20;;;;;;5051781;28;20236;-61
2022/01/21 05:24:08;;;;;;;1.88;1.00;;;15.90;53.30;;;;;;5052032;28;20179;-61
2022/01/21 05:26:37;;;;;;;1.88;0.88;;;15.90;53.30;;;;;;5050782;28;20171;-61
2022/01/21 05:29:06;;;;;;;1.65;1.00;;;15.80;53.20;;;;;;5051525;28;20538;-60
2022/01/21 05:31:32;;;;;;;2.63;1.08;;;15.80;53.20;;;;;;5050661;28;20171;-60
2022/01/21 05:33:57;;;;;;;1.33;0.90;;;15.80;53.20;;;;;;5051823;28;20183;-60
2022/01/21 05:36:23;;;;;;;2.60;1.48;;;15.80;53.20;;;;;;5051606;28;20258;-60
2022/01/21 05:38:48;;;;;;;1.20;1.00;;;15.80;53.20;;;;;;5051294;28;20211;-60
2022/01/21 05:41:14;;;;;;;1.80;1.17;;;15.80;53.20;;;;;;5051810;28;20167;-60
2022/01/21 05:43:45;;;;;;;2.85;1.30;;;15.80;53.30;;;;;;5051312;28;20174;-60
2022/01/21 05:48:55;;;;;;;1.20;0.90;;;15.80;53.30;;;;;;5051744;28;20210;-60
2022/01/21 05:51:21;;;;;;;2.88;1.33;;;15.70;53.20;;;;;;5051149;28;20211;-60
2022/01/21 05:53:47;;;;;;;2.70;1.30;;;15.80;53.30;;;;;;5051123;28;20544;-61
2022/01/21 05:56:13;;;;;;;2.50;1.38;;;15.70;53.20;;;;;;5051698;28;20328;-61
2022/01/21 05:58:38;;;;;;;2.53;1.20;;;15.70;53.20;;;;;;5051050;28;20294;-61
2022/01/21 06:01:04;;;;;;;3.22;1.35;;;15.70;53.20;;;;;;5050767;28;20163;-61
2022/01/21 06:03:31;;;;;;;2.53;0.90;;;15.70;53.30;;;;;;5051075;28;20554;-60
2022/01/21 06:05:56;;;;;;;1.05;0.73;;;15.70;53.90;;;;;;5051213;28;20694;-60
2022/01/21 06:08:22;;;;;;;2.67;1.02;;;15.70;53.30;;;;;;5050356;28;20341;-60
2022/01/21 06:10:47;;;;;;;0.93;0.80;;;15.70;53.30;;;;;;5051494;28;20202;-62
2022/01/21 06:13:16;;;;;;;2.25;0.95;;;15.70;53.30;;;;;;5051438;28;20266;-61
2022/01/21 06:15:41;;;;;;;1.20;0.95;;;15.70;53.40;;;;;;5050457;28;20193;-61
2022/01/21 06:18:07;;;;;;;3.15;1.10;;;15.70;53.40;;;;;;5051319;28;20238;-61
2022/01/21 06:20:32;;;;;;;3.13;1.10;;;15.70;53.30;;;;;;5050189;28;20187;-61
2022/01/21 06:22:58;;;;;;;2.70;1.63;;;15.70;53.40;;;;;;5051264;28;20630;-60
2022/01/21 06:25:23;;;;;;;2.17;1.02;;;15.70;53.40;;;;;;5050674;28;20197;-60
2022/01/21 06:27:49;;;;;;;2.35;1.30;;;15.70;53.40;;;;;;5050491;28;20229;-60
2022/01/21 06:30:14;;;;;;;2.38;1.00;;;15.70;53.40;;;;;;5051152;28;20638;-60
2022/01/21 06:32:40;;;;;;;1.77;1.30;;;15.60;53.30;;;;;;5050932;28;20175;-60
2022/01/21 06:35:07;;;;;;;1.38;0.88;;;15.60;53.30;;;;;;5050742;28;20183;-59
2022/01/21 06:37:32;;;;;;;1.95;1.17;;;15.60;53.30;;;;;;5050935;28;20203;-60
2022/01/21 06:39:58;;;;;;;1.27;0.77;;;15.70;53.30;;;;;;5051164;28;20657;-60
2022/01/21 06:42:25;;;;;;;1.83;0.80;;;15.70;53.20;;;;;;5052912;28;20175;-60
2022/01/21 06:44:51;;;;;;;2.10;0.90;;;15.80;53.20;;;;;;5054892;28;20182;-60
2022/01/21 06:47:18;;;;;;;2.72;1.02;;;15.80;53.20;;;;;;5054998;28;20179;-60
2022/01/21 06:49:44;;;;;;;2.00;0.98;;;15.70;53.10;;;;;;5053929;28;20222;-59
2022/01/21 06:52:09;;;;;;;2.08;1.13;;;15.70;53.10;;;;;;5054907;28;20171;-60
2022/01/21 06:54:35;;;;;;;1.83;0.80;;;15.80;53.20;;;;;;5054430;28;20648;-60
2022/01/21 06:57:00;;;;;;;1.25;1.00;;;15.70;53.10;;;;;;5053899;28;20210;-61
2022/01/21 06:59:26;;;;;;;1.80;1.10;;;15.70;53.10;;;;;;5054052;28;20207;-60
2022/01/21 07:01:51;;;;;;;1.35;1.02;;;15.70;53.10;;;;;;5054432;28;20190;-60
2022/01/21 07:04:17;;;;;;;1.38;0.80;;;15.70;53.20;;;;;;5053789;28;20171;-60
2022/01/21 07:06:42;;;;;;;1.88;0.80;;;15.70;53.20;;;;;;5054242;28;20182;-60
2022/01/21 07:09:08;;;;;;;1.63;1.00;;;15.70;53.20;;;;;;5054151;28;20187;-60
2022/01/21 07:11:33;;;;;;;1.60;1.00;;;15.80;53.20;;;;;;5053228;28;20676;-61
2022/01/21 07:13:59;;;;;;;2.15;1.13;;;15.90;53.30;;;;;;5054275;28;20183;-61
2022/01/21 07:16:24;;;;;;;1.25;0.60;;;15.90;53.10;;;;;;5053754;28;20503;-61
2022/01/21 07:18:50;;;;;;;1.00;0.75;;;16.00;53.10;;;;;;5053448;28;20257;-60
2022/01/21 07:21:15;;;;;;;0.82;0.77;;;16.00;53.20;;;;;;5054206;28;20167;-60
2022/01/21 07:23:41;;;;;;;1.23;1.05;;;16.10;53.00;;;;;;5053670;28;20177;-60
2022/01/21 07:26:06;;;;;;;1.83;0.95;;;16.30;53.00;;;;;;5053175;28;20560;-61
2022/01/21 07:28:33;;;;;;;1.15;0.70;;;16.40;52.70;;;;;;5053615;28;20186;-60
2022/01/21 07:30:58;;;;;;;1.30;0.80;;;16.50;52.40;;;;;;5053247;28;20188;-64
2022/01/21 07:33:24;;;;;;;1.17;0.90;;;16.70;52.40;;;;;;5053639;28;20184;-64
2022/01/21 07:35:52;;;;;;;7.03;1.00;;;16.90;52.20;;;;;;5053787;28;20168;-64
2022/01/21 07:38:18;;;;;;;2.38;1.08;;;17.10;51.90;;;;;;5052808;28;20210;-64
2022/01/21 07:40:43;;;;;;;2.63;0.77;;;17.30;51.80;;;;;;5053446;28;20183;-61
2022/01/21 07:43:09;;;;;;;1.60;1.00;;;17.40;51.60;;;;;;5053302;28;20644;-62
2022/01/21 07:45:34;;;;;;;2.80;1.33;;;17.50;51.90;;;;;;5052892;28;20205;-61
2022/01/21 07:48:00;;;;;;;2.22;0.90;;;17.50;52.00;;;;;;5053516;28;20268;-62
2022/01/21 07:50:25;;;;;;;1.77;1.15;;;17.60;52.00;;;;;;5052828;28;20230;-61
2022/01/21 07:52:51;;;;;;;3.63;1.23;;;17.60;52.00;;;;;;5051537;28;20174;-61
2022/01/21 07:55:16;;;;;;;2.38;1.45;;;17.60;52.00;;;;;;5053267;28;20167;-62
2022/01/21 07:57:42;;;;;;;5.18;1.10;;;17.70;52.00;;;;;;5052919;28;20191;-61
2022/01/21 08:00:08;;;;;;;3.17;1.25;;;17.80;52.00;;;;;;5052618;28;20657;-62
2022/01/21 08:02:34;;;;;;;1.83;1.05;;;17.80;51.80;;;;;;5052918;28;20266;-62
2022/01/21 08:05:04;;;;;;;2.72;1.17;;;17.90;51.90;;;;;;5053308;28;20261;-62
2022/01/21 08:07:30;;;;;;;2.25;1.13;;;17.90;51.90;;;;;;5052073;28;20186;-62
2022/01/21 08:09:55;;;;;;;1.60;0.85;;;17.90;51.80;;;;;;5052864;28;20224;-61
2022/01/21 08:12:21;;;;;;;3.70;1.17;;;17.90;51.70;;;;;;5052631;28;20537;-61
2022/01/21 08:14:46;;;;;;;3.13;1.25;;;17.90;51.70;;;;;;5052400;28;20213;-61
2022/01/21 08:17:12;;;;;;;3.10;0.95;;;17.90;51.70;;;;;;5052827;28;20508;-61
2022/01/21 08:19:37;;;;;;;2.28;1.10;;;17.90;51.70;;;;;;5052537;28;20183;-61
2022/01/21 08:22:03;;;;;;;2.28;1.02;;;18.00;51.70;;;;;;5052159;28;20665;-61
2022/01/21 08:24:29;;;;;;;2.05;1.10;;;18.00;51.50;;;;;;5052490;28;20175;-61
2022/01/21 08:26:54;;;;;;;2.05;1.20;;;18.00;51.50;;;;;;5052691;28;20178;-61
2022/01/21 08:29:20;;;;;;;1.55;0.93;;;18.10;51.40;;;;;;5051884;28;20175;-62
2022/01/21 08:31:45;;;;;;;1.98;1.00;;;18.10;51.50;;;;;;5052933;28;20171;-62
2022/01/21 08:34:13;;;;;;;3.22;1.15;;;18.10;51.40;;;;;;5052041;28;20262;-62
2022/01/21 08:36:38;;;;;;;1.48;1.05;;;18.10;51.40;;;;;;5052194;28;20179;-62
2022/01/21 08:39:04;;;;;;;2.67;0.70;;;18.10;51.50;;;;;;5052294;28;20344;-62
2022/01/21 08:41:30;;;;;;;3.20;0.90;;;18.20;51.30;;;;;;5051778;28;20689;-61
2022/01/21 08:43:55;;;;;;;2.30;0.90;;;18.20;51.30;;;;;;5052509;28;20534;-62
2022/01/21 08:46:21;;;;;;;1.48;0.90;;;18.20;51.30;;;;;;5052092;28;20178;-62
2022/01/21 08:48:47;;;;;;;1.85;0.90;;;18.30;51.20;;;;;;5051951;28;20175;-62
2022/01/21 08:51:15;;;;;;;1.00;0.80;;;18.30;51.20;;;;;;5052259;28;20234;-62
2022/01/21 08:53:41;;;;;;;2.28;0.80;;;18.40;51.10;;;;;;5051978;28;20179;-62
2022/01/21 08:56:10;;;;;;;1.38;0.90;;;18.50;51.00;;;;;;5051499;28;20182;-62
2022/01/21 08:58:36;;;;;;;2.05;0.85;;;18.50;50.90;;;;;;5051729;28;20670;-62
2022/01/21 09:01:02;;;;;;;1.50;0.90;;;18.50;50.90;;;;;;5052251;28;20185;-62
2022/01/21 09:03:27;;;;;;;2.78;1.23;;;18.60;50.90;;;;;;5050987;28;20257;-62
2022/01/21 09:05:53;;;;;;;2.47;1.05;;;18.60;50.90;;;;;;5051853;28;20500;-62
2022/01/21 09:08:21;;;;;;;1.85;1.10;;;18.60;50.90;;;;;;5051761;28;20185;-62
2022/01/21 09:10:46;;;;;;;1.77;0.80;;;18.70;50.90;;;;;;5051582;28;20181;-61
2022/01/21 09:13:12;;;;;;;1.70;0.95;;;18.70;51.40;;;;;;5052107;28;20261;-62
2022/01/21 09:15:38;;;;;;;2.03;1.05;;;18.80;50.70;;;;;;5051921;28;20266;-62
2022/01/21 09:18:05;;;;;;;1.50;0.90;;;18.80;50.60;;;;;;5051073;28;20727;-61
2022/01/21 09:20:32;;;;;;;1.45;0.80;;;18.90;50.80;;;;;;5051497;28;20700;-61
2022/01/21 09:22:57;;;;;;;0.90;0.82;;;18.80;50.60;;;;;;5051790;28;20192;-61
2022/01/21 09:25:26;;;;;;;3.03;0.88;;;18.80;50.70;;;;;;5050759;28;20178;-62
2022/01/21 09:27:51;;;;;;;1.27;0.85;;;18.80;50.70;;;;;;5051962;28;20214;-62
2022/01/21 09:30:17;;;;;;;2.28;0.90;;;18.80;50.60;;;;;;5051890;28;20210;-62
2022/01/21 09:32:43;;;;;;;0.88;0.63;;;18.80;50.70;;;;;;5050776;28;20186;-63
2022/01/21 09:35:10;;;;;;;2.50;0.70;;;18.70;50.90;;;;;;5051609;28;20167;-62
2022/01/21 09:37:35;;;;;;;2.33;1.05;;;18.70;51.00;;;;;;5050326;28;20238;-62
2022/01/21 09:40:01;;;;;;;2.80;1.00;;;18.60;51.30;;;;;;5052160;28;20206;-62
2022/01/21 09:42:26;;;;;;;2.33;0.93;;;18.50;51.40;;;;;;5051626;28;20183;-61
2022/01/21 09:44:52;;;;;;;2.47;1.00;;;18.50;51.60;;;;;;5050100;28;20180;-62
2022/01/21 09:47:18;;;;;;;1.00;0.77;;;18.40;51.70;;;;;;5050922;28;20175;-62
2022/01/21 09:49:44;;;;;;;1.70;0.93;;;18.40;51.60;;;;;;5050317;28;20234;-61
2022/01/21 09:52:11;;;;;;;1.27;0.77;;;18.30;51.70;;;;;;5050517;28;20180;-61
2022/01/21 09:54:37;;;;;;;3.15;0.98;;;18.20;51.80;;;;;;5051276;28;20185;-61
2022/01/21 09:57:04;;;;;;;2.17;1.00;;;18.10;52.10;;;;;;5051386;28;20233;-62
2022/01/21 09:59:31;;;;;;;1.77;0.70;;;18.10;52.10;;;;;;5050221;28;20226;-60
2022/01/21 10:02:04;;;;;;;1.30;0.73;;;18.00;52.20;;;;;;5051399;28;20193;-61
2022/01/21 10:04:36;;;;;;;3.15;1.10;;;18.00;52.20;;;;;;5050759;28;20618;-61
2022/01/21 10:07:02;;;;;;;2.28;1.08;;;18.00;52.30;;;;;;5050799;28;20188;-59
2022/01/21 10:09:27;;;;;;;2.67;1.00;;;18.00;52.40;;;;;;5051034;28;20175;-60
2022/01/21 10:11:54;;;;;;;1.80;1.05;;;18.10;52.30;;;;;;5051330;28;20178;-59
2022/01/21 10:14:24;;;;;;;2.65;0.85;;;18.00;52.20;;;;;;5050528;28;20202;-60
2022/01/21 10:16:50;;;;;;;3.70;1.30;;;18.10;52.30;;;;;;5053351;28;20297;-60
2022/01/21 10:19:48;;;;;;;2.20;1.00;;;18.10;51.60;;;;;;5055236;28;20301;-62
2022/01/21 10:22:18;;;;;;;1.67;0.80;;;18.10;51.10;;;;;;5054957;28;20187;-60
2022/01/21 10:24:59;;;;;;;1.98;1.08;;;18.10;51.30;;;;;;5054822;28;20645;-59
2022/01/21 10:27:35;;;;;;;2.40;0.90;;;18.10;51.50;;;;;;5054201;28;20253;-60
2022/01/21 10:30:01;;;;;;;2.15;1.17;;;18.10;51.50;;;;;;5055485;28;20179;-61
2022/01/21 10:32:38;;;;;;;2.35;0.70;;;18.20;51.70;;;;;;5054823;28;20178;-61
2022/01/21 10:35:04;;;;;;;2.13;1.02;;;18.20;51.60;;;;;;5054812;28;20186;-62
2022/01/21 10:37:34;;;;;;;3.38;1.17;;;18.20;51.70;;;;;;5053666;28;20235;-61
2022/01/21 10:40:03;;;;;;;1.73;0.80;;;18.30;51.80;;;;;;5054751;28;20637;-61
2022/01/21 10:42:28;;;;;;;2.05;0.93;;;18.30;51.70;;;;;;5053873;28;20266;-64
2022/01/21 10:44:54;;;;;;;1.40;0.85;;;18.40;51.70;;;;;;5055271;28;20263;-61
2022/01/21 10:47:24;;;;;;;4.90;1.27;;;18.40;51.70;;;;;;5054818;28;20191;-61
2022/01/21 10:50:22;;;;;;;3.22;1.00;;;18.30;51.70;;;;;;5054284;28;20227;-61
2022/01/21 10:52:51;;;;;;;4.63;1.33;;;18.30;51.70;;;;;;5054804;28;20183;-61
2022/01/21 10:55:39;;;;;;;3.05;1.10;;;18.20;51.80;;;;;;5053914;28;20642;-61
2022/01/21 10:58:09;;;;;;;2.65;1.33;;;18.10;51.90;;;;;;5054485;28;20218;-62
2022/01/21 11:00:35;;;;;;;3.15;0.93;;;18.10;52.10;;;;;;5054104;28;20194;-62
2022/01/21 11:03:14;;;;;;;1.88;1.05;;;18.00;52.10;;;;;;5053617;28;20206;-60
2022/01/21 11:05:44;;;;;;;2.85;1.27;;;18.00;52.30;;;;;;5054114;28;20182;-60
2022/01/21 11:08:11;;;;;;;1.90;0.93;;;18.10;52.30;;;;;;5054379;28;20649;-59
2022/01/21 11:10:47;;;;;;;1.27;0.85;;;18.10;52.30;;;;;;5053543;28;20183;-60
2022/01/21 11:13:12;;;;;;;2.08;0.90;;;18.20;52.30;;;;;;5054495;28;20205;-59
2022/01/21 11:15:41;;;;;;;3.35;1.10;;;18.20;52.20;;;;;;5054259;28;20587;-60
2022/01/21 11:18:09;;;;;;;2.70;0.90;;;18.30;52.30;;;;;;5053511;28;20649;-60
2022/01/21 11:20:37;;;;;;;1.90;1.05;;;18.20;52.20;;;;;;5054166;28;20186;-59
2022/01/21 11:23:03;;;;;;;4.15;1.10;;;18.20;52.20;;;;;;5053665;28;20187;-64
2022/01/21 11:25:48;;;;;;;2.08;1.05;;;18.20;52.40;;;;;;5053560;28;20174;-65
2022/01/21 11:28:18;;;;;;;3.00;0.90;;;18.10;52.40;;;;;;5054574;28;20182;-66
2022/01/21 11:30:44;;;;;;;2.42;1.17;;;18.00;52.50;;;;;;5060218;28;20259;-65
2022/01/21 11:33:09;;;;;;;1.83;1.23;;;18.00;52.60;;;;;;5069112;28;20187;-66
2022/01/21 11:35:35;;;;;;;2.42;1.38;;;18.00;53.30;;;;;;5073615;28;20265;-65
2022/01/21 11:38:03;;;;;;;3.88;1.40;;;18.00;52.60;;;;;;5053160;28;20317;-66
2022/01/21 11:40:29;;;;;;;1.67;0.98;;;18.00;52.60;;;;;;5052438;28;20179;-65
2022/01/21 11:42:54;;;;;;;1.58;0.75;;;18.00;52.50;;;;;;5052537;28;20535;-65
2022/01/21 11:45:30;;;;;;;1.83;0.90;;;18.10;52.60;;;;;;5061386;28;20265;-66
2022/01/21 11:48:49;;;;;;;2.33;0.90;;;18.10;52.60;;;;;;5053628;28;20563;-65
2022/01/21 11:50:49;;;;;;;1.73;0.73;;;18.10;52.50;;;;;;5052060;28;20247;-65
2022/01/21 11:53:53;;;;;;;2.17;1.00;;;18.00;52.50;;;;;;5052647;28;20629;-60
2022/01/21 11:56:42;;;;;;;4.07;1.10;;;18.00;52.50;;;;;;5052253;28;20183;-64
2022/01/21 11:59:32;;;;;;;2.47;0.90;;;18.00;52.50;;;;;;5052673;28;20622;-65
2022/01/21 12:01:58;;;;;;;2.92;1.33;;;17.90;52.70;;;;;;5059609;28;20173;-65
2022/01/21 12:04:29;;;;;;;5.18;0.90;;;17.90;52.80;;;;;;5072927;28;20186;-64
2022/01/21 12:06:55;;;;;;;3.25;0.95;;;17.80;52.80;;;;;;5072649;28;20617;-62
2022/01/21 12:09:38;;;;;;;3.72;1.42;;;17.90;52.80;;;;;;5073560;28;20185;-62
2022/01/21 12:12:03;;;;;;;1.17;0.90;;;17.90;52.90;;;;;;5058413;28;20602;-61
2022/01/21 12:14:36;;;;;;;3.47;0.93;;;18.00;52.80;;;;;;5072729;28;20175;-62
2022/01/21 12:17:15;;;;;;;4.35;0.80;;;18.00;52.80;;;;;;5072999;28;20248;-61
2022/01/21 12:19:40;;;;;;;4.40;1.10;;;18.00;53.40;;;;;;5071940;28;20684;-61
2022/01/21 12:22:16;;;;;;;1.67;0.70;;;18.00;52.70;;;;;;5072820;28;20173;-61
2022/01/21 12:24:51;;;;;;;2.63;1.17;;;18.00;52.80;;;;;;5072675;28;20174;-61
2022/01/21 12:27:17;;;;;;;1.63;0.90;;;18.00;52.80;;;;;;5072218;28;20268;-63
2022/01/21 12:29:43;;;;;;;3.50;1.10;;;18.00;52.90;;;;;;5072305;28;20182;-63
2022/01/21 12:32:21;;;;;;;4.28;1.05;;;17.90;52.90;;;;;;5071369;28;20185;-63
2022/01/21 12:35:02;;;;;;;2.67;0.90;;;17.90;53.00;;;;;;5071816;28;20178;-63
2022/01/21 12:37:51;;;;;;;1.30;0.93;;;17.90;53.00;;;;;;5053537;28;20164;-60
2022/01/21 12:40:33;;;;;;;3.90;0.80;;;17.90;53.10;;;;;;5051058;28;20251;-65
2022/01/21 12:42:59;;;;;;;2.85;0.80;;;17.90;53.10;;;;;;5052470;28;20174;-62
2022/01/21 12:45:24;;;;;;;1.83;0.80;;;18.00;53.10;;;;;;5052192;28;20229;-63
2022/01/21 12:47:50;;;;;;;4.57;1.08;;;18.00;53.00;;;;;;5051930;28;20172;-63
2022/01/21 12:50:37;;;;;;;1.60;0.93;;;17.90;53.00;;;;;;5052503;28;20301;-63
2022/01/21 12:58:15;;;;;;;5.30;1.15;;;17.80;53.10;;;;;;5052079;28;20217;-63
2022/01/21 13:00:40;;;;;;;1.25;0.80;;;17.80;53.20;;;;;;5051838;28;20174;-63
2022/01/21 13:03:38;;;;;;;4.03;1.20;;;17.80;53.20;;;;;;5051479;28;20516;-65
2022/01/21 13:06:19;;;;;;;2.65;1.40;;;17.80;53.20;;;;;;5051566;28;20252;-64
2022/01/21 13:09:00;;;;;;;1.45;0.82;;;17.90;53.30;;;;;;5051330;28;21025;-63
2022/01/21 13:11:25;;;;;;;3.38;1.00;;;17.90;53.10;;;;;;5051632;28;20178;-63
2022/01/21 13:17:00;;;;;;;3.78;1.10;;;17.90;53.10;;;;;;5051173;28;20171;-63
2022/01/21 13:19:26;;;;;;;2.50;0.70;;;17.80;53.10;;;;;;5051263;28;20211;-63
2022/01/21 13:21:52;;;;;;;2.40;1.00;;;17.80;53.20;;;;;;5051342;28;20254;-62
2022/01/21 13:24:27;;;;;;;3.92;1.20;;;17.70;53.20;;;;;;5050838;28;20692;-63
2022/01/21 13:26:53;;;;;;;2.95;0.82;;;17.70;53.20;;;;;;5051530;28;20174;-62
2022/01/21 13:29:18;;;;;;;3.97;0.80;;;17.80;53.40;;;;;;5051398;28;20179;-64
2022/01/21 13:31:47;;;;;;;1.05;0.68;;;17.70;53.30;;;;;;5049169;28;20638;-63
2022/01/21 13:34:31;;;;;;;1.05;0.65;;;17.70;53.20;;;;;;5051325;28;20175;-64
2022/01/21 13:36:59;;;;;;;2.08;0.85;;;17.80;53.20;;;;;;5063951;28;20669;-64
2022/01/21 13:39:27;;;;;;;3.13;0.90;;;17.80;53.20;;;;;;5071028;28;20582;-64
2022/01/21 13:42:09;;;;;;;3.25;1.00;;;17.80;53.10;;;;;;5071284;28;20182;-64
2022/01/21 13:44:44;;;;;;;2.40;0.95;;;18.40;53.40;;;;;;5070490;28;20329;-64
2022/01/21 13:47:32;;;;;;;2.72;1.10;;;17.80;53.20;;;;;;5071104;28;20177;-63
2022/01/21 13:50:18;;;;;;;2.30;0.93;;;17.70;53.20;;;;;;5071540;28;20280;-63